Time;durP1;ratioP1;P1;durP2;ratioP2;P2;SDS_P1;SDS_P2;PMS_P1;PMS_P2;Temp;Humidity;BMP_temperature;BMP_pressure;BME280_temperature;BME280_humidity;BME280_pressure;Samples;Min_cycle;Max_cycle;Signal;HPM_P1;HPM_P2
2023/08/05 00:00:16;;;;;;;4.47;1.40;;;13.20;99.90;;;;;;5057197;28;20045;-63
2023/08/05 00:02:41;;;;;;;3.63;1.20;;;13.20;99.90;;;;;;5050728;28;20524;-63
2023/08/05 00:05:08;;;;;;;1.73;1.05;;;13.30;99.90;;;;;;5051118;28;20083;-63
2023/08/05 00:07:34;;;;;;;2.70;1.15;;;13.30;99.90;;;;;;5051423;28;20074;-63
2023/08/05 00:10:00;;;;;;;2.67;1.13;;;13.40;99.90;;;;;;5050679;28;20052;-64
2023/08/05 00:12:25;;;;;;;3.47;1.35;;;13.40;99.90;;;;;;5051087;28;20037;-63
2023/08/05 00:14:51;;;;;;;1.83;1.00;;;13.40;99.90;;;;;;5050633;28;20086;-63
2023/08/05 00:17:17;;;;;;;2.28;1.25;;;13.50;99.90;;;;;;5051108;28;20477;-63
2023/08/05 00:19:43;;;;;;;2.40;1.20;;;13.50;99.90;;;;;;5050998;28;20068;-63
2023/08/05 00:22:09;;;;;;;3.40;1.10;;;13.50;99.90;;;;;;5050335;28;20575;-63
2023/08/05 00:24:35;;;;;;;2.95;1.13;;;13.50;99.90;;;;;;5052319;28;20116;-63
2023/08/05 00:27:01;;;;;;;3.22;1.48;;;13.60;99.90;;;;;;5052069;28;20670;-63
2023/08/05 00:29:27;;;;;;;2.00;1.02;;;13.60;99.90;;;;;;5050190;28;20049;-63
2023/08/05 00:31:52;;;;;;;3.83;1.33;;;13.60;99.90;;;;;;5052201;28;20102;-63
2023/08/05 00:34:18;;;;;;;2.95;1.58;;;13.60;99.90;;;;;;5052101;28;20040;-64
2023/08/05 00:36:44;;;;;;;2.80;1.38;;;13.60;99.90;;;;;;5049299;28;20072;-63
2023/08/05 00:39:10;;;;;;;3.92;1.48;;;13.70;99.90;;;;;;5050616;28;20045;-63
2023/08/05 00:41:35;;;;;;;3.53;1.38;;;13.60;99.90;;;;;;5050659;28;20048;-64
2023/08/05 00:44:01;;;;;;;3.90;0.98;;;13.70;99.90;;;;;;5051656;28;20048;-63
2023/08/05 00:46:27;;;;;;;6.13;1.05;;;13.60;99.90;;;;;;5070500;28;20048;-63
2023/08/05 00:48:53;;;;;;;2.45;1.20;;;13.60;99.90;;;;;;5070333;28;20045;-63
2023/08/05 00:51:20;;;;;;;2.28;1.05;;;13.40;99.90;;;;;;5069940;28;20040;-63
2023/08/05 00:53:48;;;;;;;3.35;1.00;;;13.40;99.90;;;;;;5070141;28;20053;-63
2023/08/05 00:56:17;;;;;;;3.10;1.30;;;13.40;99.90;;;;;;5070350;28;20040;-63
2023/08/05 00:58:44;;;;;;;2.25;1.02;;;13.30;99.90;;;;;;5070734;28;20082;-63
2023/08/05 01:01:10;;;;;;;5.10;1.35;;;13.30;99.90;;;;;;5071577;28;20099;-63
2023/08/05 01:03:37;;;;;;;3.25;1.15;;;13.20;99.90;;;;;;5070349;28;20082;-63
2023/08/05 01:06:05;;;;;;;1.65;0.90;;;13.20;99.90;;;;;;5053382;28;20050;-63
2023/08/05 01:08:31;;;;;;;1.23;0.52;;;13.20;99.90;;;;;;5056371;28;20555;-63
2023/08/05 01:10:58;;;;;;;2.22;0.95;;;13.20;99.90;;;;;;5049306;28;20049;-63
2023/08/05 01:13:24;;;;;;;1.52;0.85;;;13.20;99.90;;;;;;5051318;28;20477;-63
2023/08/05 01:15:49;;;;;;;2.08;0.82;;;13.20;99.90;;;;;;5049782;28;20120;-63
2023/08/05 01:18:17;;;;;;;1.77;0.82;;;13.20;99.90;;;;;;5050517;28;20120;-63
2023/08/05 01:20:46;;;;;;;1.27;0.70;;;13.20;99.90;;;;;;5051259;28;20048;-63
2023/08/05 01:23:32;;;;;;;;;;;13.20;99.90;;;;;;5051836;28;20425;-63
2023/08/05 01:26:00;;;;;;;2.13;0.93;;;13.20;99.90;;;;;;5050177;28;19921;-63
2023/08/05 01:28:26;;;;;;;5.00;1.45;;;13.30;99.90;;;;;;5049626;28;20060;-63
2023/08/05 01:30:54;;;;;;;2.70;1.20;;;13.30;99.90;;;;;;5049857;28;20255;-63
2023/08/05 01:33:21;;;;;;;2.05;0.80;;;13.30;99.90;;;;;;5049130;28;20106;-63
2023/08/05 01:35:48;;;;;;;2.88;1.20;;;13.40;99.90;;;;;;5050817;28;20044;-63
2023/08/05 01:38:14;;;;;;;2.70;0.80;;;13.40;99.90;;;;;;5049473;28;20048;-63
2023/08/05 01:40:40;;;;;;;2.53;1.30;;;13.40;99.90;;;;;;5037531;28;20044;-63
2023/08/05 01:43:07;;;;;;;3.05;1.15;;;13.40;99.90;;;;;;5069445;28;20044;-63
2023/08/05 01:45:33;;;;;;;2.53;1.30;;;13.40;99.90;;;;;;5070707;28;20098;-63
2023/08/05 01:47:59;;;;;;;1.75;0.73;;;13.40;99.90;;;;;;5069906;28;20032;-63
2023/08/05 01:50:25;;;;;;;3.30;1.30;;;13.40;99.90;;;;;;5068826;28;20424;-63
2023/08/05 01:52:53;;;;;;;3.20;1.55;;;13.40;99.90;;;;;;5069817;28;20447;-63
2023/08/05 01:55:19;;;;;;;2.05;1.13;;;13.40;99.90;;;;;;5070505;28;20123;-63
2023/08/05 01:57:45;;;;;;;2.60;1.38;;;13.40;99.90;;;;;;5070462;28;20049;-63
2023/08/05 02:00:11;;;;;;;3.20;1.70;;;13.40;99.90;;;;;;5068494;28;20033;-63
2023/08/05 02:02:37;;;;;;;4.15;1.20;;;13.40;99.90;;;;;;5070472;28;20043;-63
2023/08/05 02:05:02;;;;;;;2.45;1.33;;;13.40;99.90;;;;;;5051949;28;20045;-63
2023/08/05 02:07:28;;;;;;;2.97;0.93;;;13.40;99.90;;;;;;5048356;28;20098;-63
2023/08/05 02:09:54;;;;;;;2.28;1.17;;;13.40;99.90;;;;;;5049076;28;20091;-63
2023/08/05 02:12:20;;;;;;;2.13;1.10;;;13.40;99.90;;;;;;5049001;28;20041;-63
2023/08/05 02:14:45;;;;;;;1.77;1.08;;;13.30;99.90;;;;;;5031741;28;20044;-63
2023/08/05 02:17:11;;;;;;;1.55;1.05;;;13.30;99.90;;;;;;5048903;28;20103;-63
2023/08/05 02:19:37;;;;;;;1.92;0.85;;;13.30;99.90;;;;;;5048891;28;20048;-63
2023/08/05 02:22:03;;;;;;;2.42;1.35;;;13.30;99.90;;;;;;5048169;28;20071;-63
2023/08/05 02:24:28;;;;;;;2.03;0.98;;;13.30;99.90;;;;;;5050181;28;20182;-63
2023/08/05 02:26:54;;;;;;;3.38;1.30;;;13.30;99.90;;;;;;5049980;28;20117;-63
2023/08/05 02:29:20;;;;;;;3.20;1.10;;;13.20;99.90;;;;;;5048275;28;20080;-63
2023/08/05 02:31:46;;;;;;;3.35;1.23;;;13.20;99.90;;;;;;5032022;28;20037;-63
2023/08/05 02:34:11;;;;;;;3.75;0.77;;;13.20;99.90;;;;;;5049944;28;20041;-63
2023/08/05 02:36:37;;;;;;;2.95;1.40;;;13.20;99.90;;;;;;5052001;28;20091;-63
2023/08/05 02:39:03;;;;;;;2.22;0.98;;;13.30;99.90;;;;;;5068514;28;20041;-63
2023/08/05 02:41:29;;;;;;;1.33;0.63;;;13.30;99.90;;;;;;5068585;28;20037;-63
2023/08/05 02:43:54;;;;;;;3.10;1.20;;;13.30;99.90;;;;;;5069679;28;20032;-63
2023/08/05 02:46:20;;;;;;;5.57;1.50;;;13.30;99.90;;;;;;5070196;28;20373;-63
2023/08/05 02:48:46;;;;;;;3.13;1.33;;;13.30;99.90;;;;;;5068006;28;20040;-63
2023/08/05 02:51:12;;;;;;;3.97;1.40;;;13.30;99.90;;;;;;5069885;28;20041;-63
2023/08/05 02:53:37;;;;;;;4.80;1.23;;;13.40;99.90;;;;;;5051660;28;20056;-63
2023/08/05 02:56:03;;;;;;;3.40;1.27;;;13.40;99.90;;;;;;5067939;28;20080;-63
2023/08/05 02:58:29;;;;;;;2.33;1.17;;;13.40;99.90;;;;;;5069761;28;20044;-63
2023/08/05 03:01:03;;;;;;;1.65;1.15;;;13.40;99.90;;;;;;5057759;28;20048;-63
2023/08/05 03:03:29;;;;;;;3.70;0.93;;;13.40;99.90;;;;;;5053317;28;20079;-63
2023/08/05 03:05:54;;;;;;;3.15;1.05;;;13.40;99.90;;;;;;5035883;28;20045;-63
2023/08/05 03:08:20;;;;;;;3.03;1.33;;;13.50;99.90;;;;;;5052464;28;20069;-63
2023/08/05 03:10:57;;;;;;;3.08;1.25;;;13.50;99.90;;;;;;5053039;28;20048;-63
2023/08/05 03:13:22;;;;;;;3.40;1.58;;;13.50;99.90;;;;;;5052502;28;20401;-63
2023/08/05 03:15:49;;;;;;;2.70;1.38;;;13.50;99.90;;;;;;5051497;28;20049;-62
2023/08/05 03:18:15;;;;;;;3.83;1.50;;;13.50;99.90;;;;;;5052220;28;20043;-63
2023/08/05 03:20:41;;;;;;;2.90;0.88;;;13.40;99.90;;;;;;5052074;28;20037;-63
2023/08/05 03:23:07;;;;;;;2.22;0.98;;;13.50;99.90;;;;;;5051931;28;20048;-63
2023/08/05 03:25:32;;;;;;;3.50;1.05;;;13.50;99.90;;;;;;5052816;28;20044;-63
2023/08/05 03:27:58;;;;;;;3.33;0.90;;;13.50;99.90;;;;;;5052033;28;20047;-63
2023/08/05 03:30:24;;;;;;;4.63;1.83;;;13.50;99.90;;;;;;5052031;28;20025;-63
2023/08/05 03:32:50;;;;;;;4.40;1.70;;;13.50;99.90;;;;;;5053478;28;20476;-63
2023/08/05 03:35:16;;;;;;;6.60;1.38;;;13.50;99.90;;;;;;5071803;28;20047;-63
2023/08/05 03:37:42;;;;;;;1.70;0.68;;;13.60;99.90;;;;;;5054528;28;20480;-63
2023/08/05 03:40:08;;;;;;;1.30;0.70;;;13.60;99.90;;;;;;5072087;28;20040;-62
2023/08/05 03:42:33;;;;;;;4.75;1.42;;;13.60;99.90;;;;;;5072099;28;20041;-63
2023/08/05 03:44:59;;;;;;;7.40;1.00;;;13.60;99.90;;;;;;5072495;28;20083;-63
2023/08/05 03:47:26;;;;;;;2.17;1.13;;;13.60;99.90;;;;;;5072124;28;20068;-63
2023/08/05 03:49:51;;;;;;;2.97;1.15;;;13.60;99.90;;;;;;5071762;28;20476;-63
2023/08/05 03:52:17;;;;;;;3.15;1.65;;;13.60;99.90;;;;;;5071715;28;20105;-63
2023/08/05 03:54:44;;;;;;;3.00;1.23;;;13.60;99.90;;;;;;5071907;28;20060;-63
2023/08/05 03:57:09;;;;;;;6.05;1.10;;;13.60;99.90;;;;;;5040991;28;20049;-63
2023/08/05 03:59:36;;;;;;;4.00;1.55;;;13.60;99.90;;;;;;5059314;28;20047;-63
2023/08/05 04:02:03;;;;;;;3.38;1.38;;;13.60;99.90;;;;;;5071509;28;20040;-63
2023/08/05 04:04:29;;;;;;;3.72;1.40;;;13.60;99.90;;;;;;5071483;28;20040;-63
2023/08/05 04:06:54;;;;;;;1.63;1.00;;;13.60;99.90;;;;;;5071769;28;20044;-63
2023/08/05 04:09:21;;;;;;;4.20;1.35;;;13.60;99.90;;;;;;5055358;28;20080;-63
2023/08/05 04:11:49;;;;;;;2.08;0.90;;;13.60;99.90;;;;;;5050342;28;20049;-63
2023/08/05 04:14:17;;;;;;;2.00;1.02;;;13.60;99.90;;;;;;5051986;28;20087;-63
2023/08/05 04:16:43;;;;;;;3.60;1.33;;;13.60;99.90;;;;;;5052432;28;20109;-63
2023/08/05 04:19:09;;;;;;;4.68;1.70;;;13.60;99.90;;;;;;5051246;28;20465;-63
2023/08/05 04:21:45;;;;;;;6.53;1.63;;;13.60;99.90;;;;;;5051878;28;20037;-63
2023/08/05 04:24:12;;;;;;;3.45;1.17;;;13.60;99.90;;;;;;5051267;28;20101;-63
2023/08/05 04:26:37;;;;;;;1.95;0.98;;;13.60;99.90;;;;;;5033811;28;20053;-63
2023/08/05 04:29:03;;;;;;;3.47;1.33;;;13.60;99.90;;;;;;5036463;28;20091;-63
2023/08/05 04:31:29;;;;;;;5.82;1.40;;;13.60;99.90;;;;;;5071235;28;20126;-63
2023/08/05 04:33:55;;;;;;;2.15;0.98;;;13.70;99.90;;;;;;5053687;28;20463;-63
2023/08/05 04:36:21;;;;;;;3.95;1.27;;;13.70;99.90;;;;;;5072010;28;20048;-63
2023/08/05 04:38:46;;;;;;;2.80;1.67;;;13.80;99.90;;;;;;5070882;28;20044;-63
2023/08/05 04:41:12;;;;;;;4.20;0.85;;;13.80;99.90;;;;;;5071490;28;20097;-63
2023/08/05 04:43:38;;;;;;;3.60;1.33;;;13.90;99.90;;;;;;5072105;28;20068;-63
2023/08/05 04:46:04;;;;;;;3.08;1.42;;;13.90;99.90;;;;;;5072004;28;20070;-63
2023/08/05 04:48:29;;;;;;;4.68;1.85;;;13.90;99.90;;;;;;5070062;28;20127;-63
2023/08/05 04:50:55;;;;;;;2.92;1.40;;;14.00;99.90;;;;;;5070466;28;20044;-64
2023/08/05 04:53:21;;;;;;;2.80;1.02;;;14.00;99.90;;;;;;5056810;28;20076;-64
2023/08/05 04:55:47;;;;;;;3.30;1.38;;;14.00;99.90;;;;;;5049846;28;20082;-63
2023/08/05 04:58:13;;;;;;;6.00;1.48;;;14.10;99.90;;;;;;5051907;28;20115;-63
2023/08/05 05:00:39;;;;;;;5.60;1.70;;;14.10;99.90;;;;;;5032636;28;20493;-64
2023/08/05 05:03:07;;;;;;;2.75;1.10;;;14.20;99.90;;;;;;5029907;28;20045;-63
2023/08/05 05:05:34;;;;;;;3.92;1.55;;;14.20;99.90;;;;;;5014201;28;20045;-63
2023/08/05 05:08:00;;;;;;;3.17;1.30;;;14.30;99.90;;;;;;5042597;28;20420;-64
2023/08/05 05:10:26;;;;;;;3.65;1.25;;;14.30;99.90;;;;;;5069873;28;20044;-64
2023/08/05 05:12:52;;;;;;;3.47;1.38;;;14.40;99.90;;;;;;5070168;28;20770;-63
2023/08/05 05:15:20;;;;;;;3.05;1.20;;;14.40;99.90;;;;;;5071470;28;20032;-64
2023/08/05 05:17:46;;;;;;;2.58;1.15;;;14.40;99.90;;;;;;5070628;28;20107;-63
2023/08/05 05:20:12;;;;;;;2.88;1.38;;;14.40;99.90;;;;;;5053605;28;20087;-64
2023/08/05 05:22:37;;;;;;;2.55;1.20;;;14.50;99.90;;;;;;5050625;28;20087;-64
2023/08/05 05:25:04;;;;;;;4.03;1.60;;;14.40;99.90;;;;;;5049543;28;20112;-64
2023/08/05 05:27:29;;;;;;;2.65;1.50;;;14.40;99.90;;;;;;5049950;28;20098;-64
2023/08/05 05:29:55;;;;;;;3.38;1.50;;;14.40;99.90;;;;;;5048912;28;20412;-64
2023/08/05 05:32:21;;;;;;;2.88;1.38;;;14.50;99.90;;;;;;5050123;28;20049;-63
2023/08/05 05:34:48;;;;;;;2.67;1.20;;;14.50;99.90;;;;;;5049145;28;20040;-63
2023/08/05 05:37:14;;;;;;;5.22;1.13;;;14.50;99.90;;;;;;5050399;28;20393;-63
2023/08/05 05:39:40;;;;;;;2.78;0.77;;;14.50;99.90;;;;;;5049856;28;20044;-63
2023/08/05 05:42:06;;;;;;;2.85;1.65;;;14.60;99.90;;;;;;5049589;28;20047;-63
2023/08/05 05:44:31;;;;;;;3.38;1.23;;;14.70;99.90;;;;;;5049033;28;20037;-63
2023/08/05 05:46:57;;;;;;;1.98;0.93;;;14.80;99.90;;;;;;5048960;28;20044;-63
2023/08/05 05:49:23;;;;;;;2.17;1.00;;;14.90;99.90;;;;;;5049655;28;20045;-63
2023/08/05 05:51:49;;;;;;;3.28;1.23;;;14.90;99.90;;;;;;5050188;28;20455;-62
2023/08/05 05:54:15;;;;;;;2.25;0.80;;;15.00;99.90;;;;;;5050383;28;20131;-62
2023/08/05 05:56:41;;;;;;;2.97;1.23;;;15.10;99.90;;;;;;5049327;28;20068;-63
2023/08/05 05:59:07;;;;;;;2.03;0.85;;;15.10;99.90;;;;;;5052583;28;20461;-63
2023/08/05 06:01:32;;;;;;;2.25;1.13;;;15.20;99.90;;;;;;5070607;28;20043;-62
2023/08/05 06:03:58;;;;;;;3.03;1.33;;;15.30;99.90;;;;;;5064550;28;20033;-62
2023/08/05 06:06:26;;;;;;;2.10;0.75;;;15.40;99.90;;;;;;5050094;28;20041;-63
2023/08/05 06:08:52;;;;;;;3.50;1.10;;;15.50;99.90;;;;;;5047935;28;20050;-63
2023/08/05 06:11:17;;;;;;;1.40;0.88;;;15.50;99.90;;;;;;5049325;28;20045;-63
2023/08/05 06:13:43;;;;;;;2.20;0.88;;;15.60;99.90;;;;;;5047444;28;20087;-63
2023/08/05 06:16:09;;;;;;;7.53;1.38;;;15.60;99.90;;;;;;5033942;28;20041;-63
2023/08/05 06:18:34;;;;;;;1.45;0.85;;;15.60;99.90;;;;;;5029569;28;20114;-64
2023/08/05 06:21:00;;;;;;;3.15;0.80;;;15.60;99.90;;;;;;5045193;28;20130;-63
2023/08/05 06:23:26;;;;;;;1.77;0.88;;;15.70;99.90;;;;;;5048162;28;20362;-64
2023/08/05 06:25:52;;;;;;;2.30;1.08;;;15.70;99.90;;;;;;5047312;28;20431;-62
2023/08/05 06:28:18;;;;;;;2.00;0.73;;;15.70;99.90;;;;;;5047927;28;20095;-64
2023/08/05 06:30:45;;;;;;;2.88;1.20;;;15.80;99.90;;;;;;5031488;28;20393;-63
2023/08/05 06:33:11;;;;;;;1.70;0.77;;;15.80;99.90;;;;;;5048826;28;20455;-64
2023/08/05 06:35:37;;;;;;;1.60;1.00;;;15.80;99.90;;;;;;5050040;28;20059;-62
2023/08/05 06:38:03;;;;;;;1.58;0.90;;;15.80;99.90;;;;;;5036726;28;20045;-64
2023/08/05 06:40:28;;;;;;;1.48;0.65;;;15.90;99.90;;;;;;5052477;28;20041;-62
2023/08/05 06:42:56;;;;;;;3.75;1.10;;;15.90;99.90;;;;;;5052529;28;20044;-64
2023/08/05 06:45:22;;;;;;;2.00;0.73;;;15.90;99.90;;;;;;5051662;28;20044;-63
2023/08/05 06:47:48;;;;;;;2.67;1.40;;;15.90;99.90;;;;;;5051455;28;20045;-62
2023/08/05 06:50:14;;;;;;;2.65;1.15;;;16.00;99.90;;;;;;5053190;28;20044;-63
2023/08/05 06:52:40;;;;;;;1.83;0.88;;;16.00;99.90;;;;;;5052654;28;20366;-63
2023/08/05 06:55:07;;;;;;;4.80;1.75;;;16.00;99.90;;;;;;5051174;28;20049;-64
2023/08/05 06:57:32;;;;;;;3.20;1.13;;;16.20;99.90;;;;;;5051917;28;20572;-63
2023/08/05 06:59:58;;;;;;;1.45;0.80;;;16.30;99.90;;;;;;5062444;28;20064;-63
2023/08/05 07:02:25;;;;;;;4.65;1.08;;;16.40;99.90;;;;;;5051009;28;20044;-63
2023/08/05 07:04:52;;;;;;;2.35;1.00;;;16.40;99.90;;;;;;5051764;28;20136;-64
2023/08/05 07:07:17;;;;;;;4.00;1.48;;;16.40;99.90;;;;;;5051421;28;20083;-64
2023/08/05 07:09:43;;;;;;;0.98;0.60;;;16.40;99.90;;;;;;5050855;28;20045;-63
2023/08/05 07:12:09;;;;;;;1.63;0.98;;;16.50;99.90;;;;;;5051183;28;20052;-63
2023/08/05 07:14:35;;;;;;;1.52;0.95;;;16.60;99.90;;;;;;5052507;28;20072;-63
2023/08/05 07:17:01;;;;;;;2.25;1.00;;;16.70;99.90;;;;;;5033966;28;20143;-62
2023/08/05 07:19:26;;;;;;;4.22;1.20;;;16.80;99.90;;;;;;5051237;28;20033;-65
2023/08/05 07:21:52;;;;;;;1.40;0.70;;;16.90;99.90;;;;;;5051828;28;20037;-64
2023/08/05 07:24:18;;;;;;;0.98;0.60;;;17.00;99.90;;;;;;5051550;28;20045;-62
2023/08/05 07:26:44;;;;;;;2.85;1.23;;;17.20;99.90;;;;;;5051048;28;20045;-64
2023/08/05 07:29:10;;;;;;;1.80;0.90;;;17.30;99.90;;;;;;5051684;28;20140;-63
2023/08/05 07:31:36;;;;;;;1.20;0.60;;;17.50;99.90;;;;;;5052215;28;20115;-64
2023/08/05 07:34:04;;;;;;;2.08;0.77;;;17.50;99.90;;;;;;5034138;28;20045;-63
2023/08/05 07:36:31;;;;;;;1.80;1.13;;;17.60;99.90;;;;;;5050505;28;20124;-63
2023/08/05 07:38:59;;;;;;;2.58;1.20;;;17.60;99.90;;;;;;5052105;28;20503;-63
2023/08/05 07:41:26;;;;;;;1.85;0.80;;;17.60;99.90;;;;;;5050984;28;20041;-62
2023/08/05 07:43:58;;;;;;;1.25;0.68;;;17.60;99.90;;;;;;5050267;28;20082;-63
2023/08/05 07:46:30;;;;;;;1.30;0.65;;;17.70;99.90;;;;;;5051950;28;20120;-64
2023/08/05 07:48:58;;;;;;;2.00;0.60;;;17.70;99.90;;;;;;5050947;28;20562;-63
2023/08/05 07:51:24;;;;;;;4.00;1.25;;;17.70;99.90;;;;;;5033324;28;20045;-63
2023/08/05 07:53:52;;;;;;;2.95;0.82;;;17.80;99.90;;;;;;5050329;28;20323;-62
2023/08/05 07:56:18;;;;;;;3.33;0.70;;;17.80;99.90;;;;;;5052639;28;20061;-63
2023/08/05 07:58:47;;;;;;;1.63;0.90;;;17.90;99.90;;;;;;5069885;28;20175;-62
2023/08/05 08:01:17;;;;;;;2.17;0.75;;;18.00;99.90;;;;;;5071713;28;20043;-62
2023/08/05 08:03:45;;;;;;;1.08;0.80;;;18.10;99.90;;;;;;5071198;28;20055;-63
2023/08/05 08:06:14;;;;;;;4.75;0.80;;;18.30;99.90;;;;;;5071729;28;20395;-63
2023/08/05 08:08:40;;;;;;;0.70;0.50;;;18.40;99.90;;;;;;5042523;28;20056;-61
2023/08/05 08:11:06;;;;;;;2.95;0.80;;;18.60;99.90;;;;;;5029791;28;20046;-62
2023/08/05 08:13:31;;;;;;;1.27;0.50;;;18.60;99.90;;;;;;5047900;28;20072;-61
2023/08/05 08:15:57;;;;;;;1.83;0.80;;;18.60;99.90;;;;;;5050269;28;20059;-63
2023/08/05 08:18:23;;;;;;;1.73;0.60;;;18.60;99.90;;;;;;5049577;28;20485;-63
2023/08/05 08:20:50;;;;;;;0.70;0.50;;;18.50;99.90;;;;;;5050059;28;20047;-62
2023/08/05 08:23:16;;;;;;;2.97;0.52;;;18.40;99.90;;;;;;5051196;28;20039;-62
2023/08/05 08:25:42;;;;;;;2.05;0.85;;;18.20;99.90;;;;;;5049151;28;20120;-61
2023/08/05 08:28:08;;;;;;;2.08;1.17;;;18.20;99.90;;;;;;5051420;28;20045;-62
2023/08/05 08:30:33;;;;;;;4.82;1.05;;;18.30;99.90;;;;;;5051263;28;20049;-62
2023/08/05 08:32:59;;;;;;;2.17;0.60;;;18.30;99.90;;;;;;5049557;28;20041;-62
2023/08/05 08:35:25;;;;;;;0.85;0.55;;;18.30;99.90;;;;;;5050988;28;20041;-63
2023/08/05 08:37:51;;;;;;;2.78;1.15;;;18.50;99.90;;;;;;5049931;28;20116;-63
2023/08/05 08:40:17;;;;;;;1.42;0.75;;;18.60;99.90;;;;;;5050626;28;20573;-62
2023/08/05 08:42:43;;;;;;;1.90;0.85;;;18.60;99.90;;;;;;5050943;28;20049;-61
2023/08/05 08:45:14;;;;;;;1.38;0.90;;;18.80;99.90;;;;;;5051053;28;20033;-62
2023/08/05 08:47:40;;;;;;;1.20;0.68;;;18.80;99.90;;;;;;5050311;28;20044;-63
2023/08/05 08:50:07;;;;;;;1.02;0.70;;;18.80;99.90;;;;;;5049568;28;20057;-62
2023/08/05 08:52:35;;;;;;;2.55;1.13;;;18.80;99.90;;;;;;5035076;28;20075;-62
2023/08/05 08:55:03;;;;;;;0.90;0.60;;;18.90;99.90;;;;;;5069291;28;20466;-62
2023/08/05 08:57:29;;;;;;;1.15;0.60;;;19.00;99.90;;;;;;5070297;28;20052;-63
2023/08/05 09:00:08;;;;;;;2.80;1.17;;;19.10;99.90;;;;;;5068457;28;20036;-63
2023/08/05 09:02:35;;;;;;;2.03;0.88;;;19.20;99.90;;;;;;5069488;28;20441;-64
2023/08/05 09:05:02;;;;;;;1.70;0.90;;;19.20;99.90;;;;;;5039533;28;20115;-64
2023/08/05 09:07:28;;;;;;;1.30;0.68;;;19.10;99.90;;;;;;5029088;28;20123;-62
2023/08/05 09:09:54;;;;;;;1.90;0.60;;;19.10;99.90;;;;;;5048173;28;20080;-65
2023/08/05 09:12:20;;;;;;;1.58;1.02;;;19.10;99.90;;;;;;5049341;28;20120;-63
2023/08/05 09:14:53;;;;;;;0.93;0.50;;;19.30;99.90;;;;;;5050180;28;20468;-63
2023/08/05 09:17:19;;;;;;;3.22;1.00;;;19.40;99.90;;;;;;5048934;28;20055;-63
2023/08/05 09:19:44;;;;;;;2.72;1.20;;;19.40;99.90;;;;;;5050413;28;20652;-63
2023/08/05 09:22:10;;;;;;;5.05;0.90;;;19.40;99.90;;;;;;5048325;28;20047;-63
2023/08/05 09:24:36;;;;;;;4.07;1.23;;;19.40;99.90;;;;;;5048811;28;20068;-63
2023/08/05 09:27:02;;;;;;;2.42;1.02;;;19.50;99.90;;;;;;5048756;28;20128;-65
2023/08/05 09:29:28;;;;;;;3.08;0.70;;;19.70;99.90;;;;;;5049537;28;20103;-63
2023/08/05 09:32:01;;;;;;;2.15;1.02;;;20.00;99.90;;;;;;5049906;28;20123;-64
2023/08/05 09:34:35;;;;;;;1.95;0.70;;;20.10;99.90;;;;;;5048860;28;20048;-63
2023/08/05 09:37:01;;;;;;;2.22;1.15;;;20.40;99.90;;;;;;5048037;28;20522;-64
2023/08/05 09:39:45;;;;;;;1.35;0.60;;;20.50;99.90;;;;;;5048790;28;20066;-64
2023/08/05 09:42:27;;;;;;;2.17;1.00;;;20.40;99.90;;;;;;5048010;28;20110;-63
2023/08/05 09:44:57;;;;;;;1.42;0.73;;;20.00;99.90;;;;;;5048499;28;20153;-63
2023/08/05 09:47:30;;;;;;;2.00;1.02;;;20.00;99.90;;;;;;5048779;28;20400;-64
2023/08/05 09:49:58;;;;;;;3.60;0.80;;;20.00;99.90;;;;;;5059704;28;20044;-63
2023/08/05 09:52:26;;;;;;;1.63;0.80;;;20.00;99.90;;;;;;5068425;28;20070;-64
2023/08/05 09:54:59;;;;;;;1.55;0.73;;;19.90;99.90;;;;;;5068526;28;20040;-63
2023/08/05 09:57:29;;;;;;;2.03;0.75;;;19.80;99.90;;;;;;5068834;28;20046;-64
2023/08/05 09:59:58;;;;;;;2.38;1.15;;;19.70;99.90;;;;;;5062418;28;20112;-64
2023/08/05 10:02:25;;;;;;;1.70;1.08;;;19.90;99.90;;;;;;5028662;28;20042;-65
2023/08/05 10:04:56;;;;;;;1.92;1.05;;;20.10;99.90;;;;;;5035639;28;20029;-64
2023/08/05 10:07:23;;;;;;;1.38;0.95;;;20.40;99.90;;;;;;5049153;28;20111;-63
2023/08/05 10:09:50;;;;;;;1.63;1.02;;;20.60;99.90;;;;;;5047706;28;20099;-64
2023/08/05 10:12:32;;;;;;;1.50;0.57;;;20.60;99.90;;;;;;5048015;28;20098;-65
2023/08/05 10:14:59;;;;;;;2.55;1.10;;;20.50;99.90;;;;;;5050541;28;20045;-65
2023/08/05 10:17:26;;;;;;;2.97;0.95;;;20.50;99.90;;;;;;5049578;28;20161;-64
2023/08/05 10:19:52;;;;;;;1.27;0.98;;;20.50;99.90;;;;;;5047819;28;20046;-63
2023/08/05 10:22:23;;;;;;;2.75;1.35;;;20.30;99.90;;;;;;5049336;28;20045;-65
2023/08/05 10:24:57;;;;;;;7.07;1.75;;;20.10;99.90;;;;;;5048731;28;20091;-64
2023/08/05 10:27:45;;;;;;;3.75;0.88;;;19.80;99.90;;;;;;5031399;28;20095;-63
2023/08/05 10:30:15;;;;;;;1.77;0.90;;;19.70;99.90;;;;;;5049111;28;20509;-63
2023/08/05 10:32:52;;;;;;;1.63;0.77;;;19.50;99.90;;;;;;5048655;28;20045;-64
2023/08/05 10:35:39;;;;;;;1.10;0.77;;;19.40;99.90;;;;;;5047999;28;20075;-63
2023/08/05 10:38:06;;;;;;;3.22;1.10;;;19.50;99.90;;;;;;5047523;28;20044;-64
2023/08/05 10:41:02;;;;;;;1.38;0.98;;;19.70;99.90;;;;;;5049058;28;20532;-65
2023/08/05 10:43:31;;;;;;;4.40;1.10;;;20.20;99.90;;;;;;5048046;28;20052;-64
2023/08/05 10:46:07;;;;;;;2.25;1.30;;;20.50;99.90;;;;;;5056952;28;20040;-64
2023/08/05 10:48:40;;;;;;;4.35;1.20;;;20.70;99.90;;;;;;5069121;28;20047;-63
2023/08/05 10:51:19;;;;;;;3.05;1.17;;;20.70;99.90;;;;;;5068843;28;20040;-64
2023/08/05 10:53:59;;;;;;;2.35;1.20;;;20.50;99.90;;;;;;5068086;28;20527;-62
2023/08/05 10:56:32;;;;;;;;;;;20.20;99.90;;;;;;5062232;28;20045;-64
2023/08/05 10:59:01;;;;;;;1.80;1.10;;;20.00;99.90;;;;;;5050096;28;19951;-63
2023/08/05 11:01:57;;;;;;;5.43;1.08;;;19.80;99.90;;;;;;5056525;28;20560;-64
2023/08/05 11:04:30;;;;;;;1.33;0.90;;;19.70;99.90;;;;;;5047359;28;20098;-63
2023/08/05 11:06:59;;;;;;;2.78;1.20;;;19.60;99.90;;;;;;5046972;28;20052;-62
2023/08/05 11:09:26;;;;;;;2.60;1.60;;;19.50;99.90;;;;;;5048787;28;20485;-63
2023/08/05 11:11:52;;;;;;;1.58;1.10;;;19.50;99.90;;;;;;5047378;28;20590;-64
2023/08/05 11:14:19;;;;;;;2.05;0.90;;;19.50;99.90;;;;;;5048383;28;20045;-64
2023/08/05 11:16:46;;;;;;;1.90;1.17;;;19.40;99.90;;;;;;5048563;28;20053;-64
2023/08/05 11:19:12;;;;;;;2.25;1.13;;;19.50;99.90;;;;;;5047361;28;20284;-63
2023/08/05 11:21:43;;;;;;;2.90;0.90;;;19.50;99.90;;;;;;5048328;28;20619;-64
2023/08/05 11:24:17;;;;;;;2.40;1.17;;;19.70;99.90;;;;;;5052558;28;20041;-63
2023/08/05 11:26:43;;;;;;;6.18;1.55;;;19.80;99.90;;;;;;5055138;28;20036;-63
2023/08/05 11:29:09;;;;;;;1.92;1.08;;;19.90;99.90;;;;;;5051344;28;20044;-64
2023/08/05 11:31:35;;;;;;;2.33;1.20;;;19.90;99.90;;;;;;5050997;28;20303;-63
2023/08/05 11:34:01;;;;;;;1.58;0.95;;;20.00;99.90;;;;;;5050418;28;20055;-63
2023/08/05 11:36:28;;;;;;;1.80;1.30;;;20.20;99.90;;;;;;5052388;28;20041;-63
2023/08/05 11:38:59;;;;;;;2.35;0.90;;;20.20;99.90;;;;;;5050815;28;20037;-64
2023/08/05 11:41:26;;;;;;;2.63;1.25;;;20.20;99.90;;;;;;5050519;28;20077;-62
2023/08/05 11:43:55;;;;;;;1.80;1.05;;;20.20;99.90;;;;;;5052141;28;20116;-63
2023/08/05 11:46:29;;;;;;;1.48;0.85;;;20.20;99.90;;;;;;5051982;28;20037;-62
2023/08/05 11:49:12;;;;;;;1.83;0.93;;;20.30;99.90;;;;;;5051752;28;20537;-63
2023/08/05 11:51:52;;;;;;;1.52;0.98;;;20.30;99.90;;;;;;5052898;28;20401;-61
2023/08/05 11:54:24;;;;;;;;;;;20.20;99.90;;;;;;5052075;28;20167;-62
2023/08/05 11:56:50;;;;;;;1.58;1.00;;;20.10;99.90;;;;;;5050985;28;20369;-64
2023/08/05 11:59:16;;;;;;;3.42;1.02;;;20.00;99.90;;;;;;5057384;28;20045;-63
2023/08/05 12:01:42;;;;;;;4.35;1.13;;;20.00;99.90;;;;;;5072414;28;20029;-63
2023/08/05 12:04:08;;;;;;;1.75;0.90;;;20.00;99.90;;;;;;5072765;28;20037;-62
2023/08/05 12:06:34;;;;;;;1.73;0.90;;;20.10;99.90;;;;;;5046724;28;20088;-63
2023/08/05 12:09:00;;;;;;;1.17;0.75;;;20.20;99.90;;;;;;5032417;28;20060;-63
2023/08/05 12:11:26;;;;;;;0.70;0.47;;;20.20;99.90;;;;;;5031602;28;20466;-63
2023/08/05 12:13:52;;;;;;;1.40;0.77;;;20.20;99.90;;;;;;5031451;28;20095;-64
2023/08/05 12:16:18;;;;;;;1.33;0.85;;;20.20;99.90;;;;;;5030833;28;20053;-63
2023/08/05 12:18:45;;;;;;;0.93;0.57;;;20.20;99.90;;;;;;5031342;28;20053;-64
2023/08/05 12:21:14;;;;;;;1.02;0.73;;;20.10;99.90;;;;;;5032700;28;20033;-64
2023/08/05 12:23:43;;;;;;;3.53;1.02;;;20.10;99.90;;;;;;5050359;28;20059;-63
2023/08/05 12:26:10;;;;;;;1.50;0.65;;;20.10;99.90;;;;;;5052506;28;20044;-63
2023/08/05 12:28:37;;;;;;;1.17;0.70;;;20.10;99.90;;;;;;5052539;28;20121;-63
2023/08/05 12:31:03;;;;;;;1.67;0.85;;;20.10;99.90;;;;;;5050549;28;20052;-64
2023/08/05 12:33:29;;;;;;;1.65;1.00;;;20.10;99.90;;;;;;5050434;28;20064;-63
2023/08/05 12:35:55;;;;;;;1.48;0.95;;;20.10;99.90;;;;;;5052369;28;20041;-63
2023/08/05 12:38:21;;;;;;;2.22;0.82;;;20.10;99.90;;;;;;5051696;28;20033;-64
2023/08/05 12:40:46;;;;;;;1.38;0.80;;;20.10;99.90;;;;;;5034398;28;20383;-63
2023/08/05 12:43:12;;;;;;;2.33;0.50;;;20.00;99.90;;;;;;5051180;28;20126;-63
2023/08/05 12:45:39;;;;;;;2.80;0.73;;;20.00;99.90;;;;;;5049588;28;20505;-64
2023/08/05 12:48:05;;;;;;;1.15;0.75;;;20.00;99.90;;;;;;5049737;28;20045;-63